sensor_id;sensor_type;location;lat;lon;timestamp;temperature;humidity
24146;DHT22;12308;50.948;4.706;2023-01-23T00:00:56;3.70;99.90
24146;DHT22;12308;50.948;4.706;2023-01-23T00:03:22;3.70;99.90
24146;DHT22;12308;50.948;4.706;2023-01-23T00:06:06;3.60;99.90
24146;DHT22;12308;50.948;4.706;2023-01-23T00:08:33;3.40;99.90
24146;DHT22;12308;50.948;4.706;2023-01-23T00:10:59;3.30;99.90
24146;DHT22;12308;50.948;4.706;2023-01-23T00:13:25;3.10;99.90
24146;DHT22;12308;50.948;4.706;2023-01-23T00:15:50;3.00;99.90
24146;DHT22;12308;50.948;4.706;2023-01-23T00:18:16;2.80;99.90
24146;DHT22;12308;50.948;4.706;2023-01-23T00:20:42;2.80;99.90
24146;DHT22;12308;50.948;4.706;2023-01-23T00:23:09;2.70;99.90
24146;DHT22;12308;50.948;4.706;2023-01-23T00:25:35;2.70;99.90
24146;DHT22;12308;50.948;4.706;2023-01-23T00:28:01;2.70;99.90
24146;DHT22;12308;50.948;4.706;2023-01-23T00:30:27;2.70;99.90
24146;DHT22;12308;50.948;4.706;2023-01-23T00:32:52;2.70;99.90
24146;DHT22;12308;50.948;4.706;2023-01-23T00:35:18;2.70;99.90
24146;DHT22;12308;50.948;4.706;2023-01-23T00:37:44;2.80;99.90
24146;DHT22;12308;50.948;4.706;2023-01-23T00:40:10;2.80;99.90
24146;DHT22;12308;50.948;4.706;2023-01-23T00:42:35;2.80;99.90
24146;DHT22;12308;50.948;4.706;2023-01-23T00:45:01;2.80;99.90
24146;DHT22;12308;50.948;4.706;2023-01-23T00:47:27;2.80;99.90
24146;DHT22;12308;50.948;4.706;2023-01-23T00:49:52;2.60;99.90
24146;DHT22;12308;50.948;4.706;2023-01-23T00:52:19;2.60;99.90
24146;DHT22;12308;50.948;4.706;2023-01-23T00:54:45;2.60;99.90
24146;DHT22;12308;50.948;4.706;2023-01-23T00:57:10;2.70;99.90
24146;DHT22;12308;50.948;4.706;2023-01-23T00:59:36;2.90;99.90
24146;DHT22;12308;50.948;4.706;2023-01-23T01:02:02;3.00;99.90
24146;DHT22;12308;50.948;4.706;2023-01-23T01:04:28;3.20;99.90
24146;DHT22;12308;50.948;4.706;2023-01-23T01:06:53;3.20;99.90
24146;DHT22;12308;50.948;4.706;2023-01-23T01:09:19;3.30;99.90
24146;DHT22;12308;50.948;4.706;2023-01-23T01:11:44;3.30;99.90
24146;DHT22;12308;50.948;4.706;2023-01-23T01:14:10;3.30;99.90
24146;DHT22;12308;50.948;4.706;2023-01-23T01:16:36;3.20;99.90
24146;DHT22;12308;50.948;4.706;2023-01-23T01:19:03;3.20;99.90
24146;DHT22;12308;50.948;4.706;2023-01-23T01:21:29;3.20;99.90
24146;DHT22;12308;50.948;4.706;2023-01-23T01:23:55;3.10;99.90
24146;DHT22;12308;50.948;4.706;2023-01-23T01:26:21;3.10;99.90
24146;DHT22;12308;50.948;4.706;2023-01-23T01:28:48;3.20;99.90
24146;DHT22;12308;50.948;4.706;2023-01-23T01:31:14;3.20;99.90
24146;DHT22;12308;50.948;4.706;2023-01-23T01:33:41;3.30;99.90
24146;DHT22;12308;50.948;4.706;2023-01-23T01:36:09;3.40;99.90
24146;DHT22;12308;50.948;4.706;2023-01-23T01:38:35;3.40;99.90
24146;DHT22;12308;50.948;4.706;2023-01-23T01:41:00;3.50;99.90
24146;DHT22;12308;50.948;4.706;2023-01-23T01:43:26;3.50;99.90
24146;DHT22;12308;50.948;4.706;2023-01-23T01:46:15;3.60;99.90
24146;DHT22;12308;50.948;4.706;2023-01-23T01:49:01;3.40;99.90
24146;DHT22;12308;50.948;4.706;2023-01-23T01:51:45;3.30;99.90
24146;DHT22;12308;50.948;4.706;2023-01-23T01:57:10;3.50;99.90
24146;DHT22;12308;50.948;4.706;2023-01-23T01:59:53;3.60;99.90
24146;DHT22;12308;50.948;4.706;2023-01-23T02:02:50;3.70;99.90
24146;DHT22;12308;50.948;4.706;2023-01-23T02:05:20;3.70;99.90
24146;DHT22;12308;50.948;4.706;2023-01-23T02:07:53;3.70;99.90
24146;DHT22;12308;50.948;4.706;2023-01-23T02:10:21;3.70;99.90
24146;DHT22;12308;50.948;4.706;2023-01-23T02:12:49;3.60;99.90
24146;DHT22;12308;50.948;4.706;2023-01-23T02:15:17;3.60;99.90
24146;DHT22;12308;50.948;4.706;2023-01-23T02:17:44;3.70;99.90
24146;DHT22;12308;50.948;4.706;2023-01-23T02:23:04;3.70;99.90
24146;DHT22;12308;50.948;4.706;2023-01-23T02:28:10;3.70;99.90
24146;DHT22;12308;50.948;4.706;2023-01-23T02:30:36;3.60;99.90
24146;DHT22;12308;50.948;4.706;2023-01-23T02:33:08;3.70;99.90
24146;DHT22;12308;50.948;4.706;2023-01-23T02:35:35;3.80;99.90
24146;DHT22;12308;50.948;4.706;2023-01-23T02:38:04;3.70;99.90
24146;DHT22;12308;50.948;4.706;2023-01-23T02:40:35;3.70;99.90
24146;DHT22;12308;50.948;4.706;2023-01-23T02:43:06;3.60;99.90
24146;DHT22;12308;50.948;4.706;2023-01-23T02:45:34;3.50;99.90
24146;DHT22;12308;50.948;4.706;2023-01-23T02:48:00;3.50;99.90
24146;DHT22;12308;50.948;4.706;2023-01-23T02:50:29;3.50;99.90
24146;DHT22;12308;50.948;4.706;2023-01-23T02:52:54;3.50;99.90
24146;DHT22;12308;50.948;4.706;2023-01-23T02:55:22;3.50;99.90
24146;DHT22;12308;50.948;4.706;2023-01-23T02:57:51;3.40;99.90
24146;DHT22;12308;50.948;4.706;2023-01-23T03:00:17;3.40;99.90
24146;DHT22;12308;50.948;4.706;2023-01-23T03:02:48;3.30;99.90
24146;DHT22;12308;50.948;4.706;2023-01-23T03:05:18;3.30;99.90
24146;DHT22;12308;50.948;4.706;2023-01-23T03:07:43;3.30;99.90
24146;DHT22;12308;50.948;4.706;2023-01-23T03:10:10;3.30;99.90
24146;DHT22;12308;50.948;4.706;2023-01-23T03:12:37;3.20;99.90
24146;DHT22;12308;50.948;4.706;2023-01-23T03:15:08;3.20;99.90
24146;DHT22;12308;50.948;4.706;2023-01-23T03:17:34;3.20;99.90
24146;DHT22;12308;50.948;4.706;2023-01-23T03:20:01;3.20;99.90
24146;DHT22;12308;50.948;4.706;2023-01-23T03:22:28;3.20;99.90
24146;DHT22;12308;50.948;4.706;2023-01-23T03:24:54;3.20;99.90
24146;DHT22;12308;50.948;4.706;2023-01-23T03:27:22;3.20;99.90
24146;DHT22;12308;50.948;4.706;2023-01-23T03:29:48;3.20;99.90
24146;DHT22;12308;50.948;4.706;2023-01-23T03:32:32;3.40;99.90
24146;DHT22;12308;50.948;4.706;2023-01-23T03:34:58;3.50;99.90
24146;DHT22;12308;50.948;4.706;2023-01-23T03:37:24;3.40;99.90
24146;DHT22;12308;50.948;4.706;2023-01-23T03:39:49;3.50;99.90
24146;DHT22;12308;50.948;4.706;2023-01-23T03:42:34;3.60;99.90
24146;DHT22;12308;50.948;4.706;2023-01-23T03:45:00;3.70;99.90
24146;DHT22;12308;50.948;4.706;2023-01-23T03:47:26;3.70;99.90
24146;DHT22;12308;50.948;4.706;2023-01-23T03:49:52;3.70;99.90
24146;DHT22;12308;50.948;4.706;2023-01-23T03:52:18;3.70;99.90
24146;DHT22;12308;50.948;4.706;2023-01-23T03:54:43;3.70;99.90
24146;DHT22;12308;50.948;4.706;2023-01-23T03:57:09;3.60;99.90
24146;DHT22;12308;50.948;4.706;2023-01-23T03:59:35;3.50;99.90
24146;DHT22;12308;50.948;4.706;2023-01-23T04:02:01;3.50;99.90
24146;DHT22;12308;50.948;4.706;2023-01-23T04:04:33;3.50;99.90
24146;DHT22;12308;50.948;4.706;2023-01-23T04:06:59;3.50;99.90
24146;DHT22;12308;50.948;4.706;2023-01-23T04:09:25;3.50;99.90
24146;DHT22;12308;50.948;4.706;2023-01-23T04:11:56;3.60;99.90
24146;DHT22;12308;50.948;4.706;2023-01-23T04:14:24;3.60;99.90
24146;DHT22;12308;50.948;4.706;2023-01-23T04:16:50;3.50;99.90
24146;DHT22;12308;50.948;4.706;2023-01-23T04:19:16;3.40;99.90
24146;DHT22;12308;50.948;4.706;2023-01-23T04:21:46;3.20;99.90
24146;DHT22;12308;50.948;4.706;2023-01-23T04:24:13;3.30;99.90
24146;DHT22;12308;50.948;4.706;2023-01-23T04:26:39;3.50;99.90
24146;DHT22;12308;50.948;4.706;2023-01-23T04:29:05;3.50;99.90
24146;DHT22;12308;50.948;4.706;2023-01-23T04:31:30;3.50;99.90
24146;DHT22;12308;50.948;4.706;2023-01-23T04:33:56;3.50;99.90
24146;DHT22;12308;50.948;4.706;2023-01-23T04:36:22;3.50;99.90
24146;DHT22;12308;50.948;4.706;2023-01-23T04:38:47;3.60;99.90
24146;DHT22;12308;50.948;4.706;2023-01-23T04:41:24;3.50;99.90
24146;DHT22;12308;50.948;4.706;2023-01-23T04:43:50;3.50;99.90
24146;DHT22;12308;50.948;4.706;2023-01-23T04:46:15;3.60;99.90
24146;DHT22;12308;50.948;4.706;2023-01-23T04:48:41;3.60;99.90
24146;DHT22;12308;50.948;4.706;2023-01-23T04:51:07;3.70;99.90
24146;DHT22;12308;50.948;4.706;2023-01-23T04:53:33;3.70;99.90
24146;DHT22;12308;50.948;4.706;2023-01-23T04:55:59;3.70;99.90
24146;DHT22;12308;50.948;4.706;2023-01-23T04:58:25;3.70;99.90
24146;DHT22;12308;50.948;4.706;2023-01-23T05:00:50;3.60;99.90
24146;DHT22;12308;50.948;4.706;2023-01-23T05:03:17;3.60;99.90
24146;DHT22;12308;50.948;4.706;2023-01-23T05:05:42;3.60;99.90
24146;DHT22;12308;50.948;4.706;2023-01-23T05:08:09;3.50;99.90
24146;DHT22;12308;50.948;4.706;2023-01-23T05:10:35;3.50;99.90
24146;DHT22;12308;50.948;4.706;2023-01-23T05:13:01;3.50;99.90
24146;DHT22;12308;50.948;4.706;2023-01-23T05:15:27;3.40;99.90
24146;DHT22;12308;50.948;4.706;2023-01-23T05:17:53;3.50;99.90
24146;DHT22;12308;50.948;4.706;2023-01-23T05:20:19;3.50;99.90
24146;DHT22;12308;50.948;4.706;2023-01-23T05:22:45;3.60;99.90
24146;DHT22;12308;50.948;4.706;2023-01-23T05:25:21;3.60;99.90
24146;DHT22;12308;50.948;4.706;2023-01-23T05:27:47;3.50;99.90
24146;DHT22;12308;50.948;4.706;2023-01-23T05:30:13;3.60;99.90
24146;DHT22;12308;50.948;4.706;2023-01-23T05:32:39;3.60;99.90
24146;DHT22;12308;50.948;4.706;2023-01-23T05:35:05;3.60;99.90
24146;DHT22;12308;50.948;4.706;2023-01-23T05:37:31;3.60;99.90
24146;DHT22;12308;50.948;4.706;2023-01-23T05:39:56;3.70;99.90
24146;DHT22;12308;50.948;4.706;2023-01-23T05:42:22;3.70;99.90
24146;DHT22;12308;50.948;4.706;2023-01-23T05:44:47;3.70;99.90
24146;DHT22;12308;50.948;4.706;2023-01-23T05:47:13;3.70;99.90
24146;DHT22;12308;50.948;4.706;2023-01-23T05:49:39;3.70;99.90
24146;DHT22;12308;50.948;4.706;2023-01-23T05:52:05;3.70;99.90
24146;DHT22;12308;50.948;4.706;2023-01-23T05:54:31;3.70;99.90
24146;DHT22;12308;50.948;4.706;2023-01-23T05:56:56;3.70;99.90
24146;DHT22;12308;50.948;4.706;2023-01-23T05:59:22;3.70;99.90
24146;DHT22;12308;50.948;4.706;2023-01-23T06:01:48;3.70;99.90
24146;DHT22;12308;50.948;4.706;2023-01-23T06:04:13;3.60;99.90
24146;DHT22;12308;50.948;4.706;2023-01-23T06:06:41;3.70;99.90
24146;DHT22;12308;50.948;4.706;2023-01-23T06:09:07;3.70;99.90
24146;DHT22;12308;50.948;4.706;2023-01-23T06:11:33;3.70;99.90
24146;DHT22;12308;50.948;4.706;2023-01-23T06:13:59;3.60;99.90
24146;DHT22;12308;50.948;4.706;2023-01-23T06:16:24;3.60;99.90
24146;DHT22;12308;50.948;4.706;2023-01-23T06:18:50;3.60;99.90
24146;DHT22;12308;50.948;4.706;2023-01-23T06:21:16;3.60;99.90
24146;DHT22;12308;50.948;4.706;2023-01-23T06:23:43;3.70;99.90
24146;DHT22;12308;50.948;4.706;2023-01-23T06:26:09;3.70;99.90
24146;DHT22;12308;50.948;4.706;2023-01-23T06:28:35;3.70;99.90
24146;DHT22;12308;50.948;4.706;2023-01-23T06:31:01;3.60;99.90
24146;DHT22;12308;50.948;4.706;2023-01-23T06:33:29;3.80;99.90
24146;DHT22;12308;50.948;4.706;2023-01-23T06:36:03;3.80;99.90
24146;DHT22;12308;50.948;4.706;2023-01-23T06:38:29;3.70;99.90
24146;DHT22;12308;50.948;4.706;2023-01-23T06:40:55;3.70;99.90
24146;DHT22;12308;50.948;4.706;2023-01-23T06:43:22;3.60;99.90
24146;DHT22;12308;50.948;4.706;2023-01-23T06:45:48;3.60;99.90
24146;DHT22;12308;50.948;4.706;2023-01-23T06:48:14;3.70;99.90
24146;DHT22;12308;50.948;4.706;2023-01-23T06:50:41;3.80;99.90
24146;DHT22;12308;50.948;4.706;2023-01-23T06:53:07;3.90;99.90
24146;DHT22;12308;50.948;4.706;2023-01-23T06:55:35;3.80;99.90
24146;DHT22;12308;50.948;4.706;2023-01-23T06:58:00;3.80;99.90
24146;DHT22;12308;50.948;4.706;2023-01-23T07:00:26;3.80;99.90
24146;DHT22;12308;50.948;4.706;2023-01-23T07:02:52;3.80;99.90
24146;DHT22;12308;50.948;4.706;2023-01-23T07:05:18;3.90;99.90
24146;DHT22;12308;50.948;4.706;2023-01-23T07:07:44;3.80;99.90
24146;DHT22;12308;50.948;4.706;2023-01-23T07:10:10;3.80;99.90
24146;DHT22;12308;50.948;4.706;2023-01-23T07:12:36;3.80;99.90
24146;DHT22;12308;50.948;4.706;2023-01-23T07:15:03;3.80;99.90
24146;DHT22;12308;50.948;4.706;2023-01-23T07:17:28;3.70;99.90
24146;DHT22;12308;50.948;4.706;2023-01-23T07:19:54;3.70;99.90
24146;DHT22;12308;50.948;4.706;2023-01-23T07:22:21;3.50;99.90
24146;DHT22;12308;50.948;4.706;2023-01-23T07:24:47;3.50;99.90
24146;DHT22;12308;50.948;4.706;2023-01-23T07:27:13;3.60;99.90
24146;DHT22;12308;50.948;4.706;2023-01-23T07:29:40;3.70;99.90
24146;DHT22;12308;50.948;4.706;2023-01-23T07:32:06;3.70;99.90
24146;DHT22;12308;50.948;4.706;2023-01-23T07:34:32;3.80;99.90
24146;DHT22;12308;50.948;4.706;2023-01-23T07:36:57;3.90;99.90
24146;DHT22;12308;50.948;4.706;2023-01-23T07:39:23;3.90;99.90
24146;DHT22;12308;50.948;4.706;2023-01-23T07:41:49;4.00;99.90
24146;DHT22;12308;50.948;4.706;2023-01-23T07:44:17;4.00;99.90
24146;DHT22;12308;50.948;4.706;2023-01-23T07:46:43;3.90;99.90
24146;DHT22;12308;50.948;4.706;2023-01-23T07:49:09;3.90;99.90
24146;DHT22;12308;50.948;4.706;2023-01-23T07:51:35;3.80;99.90
24146;DHT22;12308;50.948;4.706;2023-01-23T07:54:00;3.80;99.90
24146;DHT22;12308;50.948;4.706;2023-01-23T07:56:26;3.80;99.90
24146;DHT22;12308;50.948;4.706;2023-01-23T07:58:52;3.80;99.90
24146;DHT22;12308;50.948;4.706;2023-01-23T08:01:18;3.80;99.90
24146;DHT22;12308;50.948;4.706;2023-01-23T08:03:45;4.10;99.90
24146;DHT22;12308;50.948;4.706;2023-01-23T08:06:10;4.10;99.90
24146;DHT22;12308;50.948;4.706;2023-01-23T08:08:36;4.20;99.90
24146;DHT22;12308;50.948;4.706;2023-01-23T08:11:06;4.40;99.90
24146;DHT22;12308;50.948;4.706;2023-01-23T08:13:32;4.50;99.90
24146;DHT22;12308;50.948;4.706;2023-01-23T08:15:58;4.40;99.90
24146;DHT22;12308;50.948;4.706;2023-01-23T08:18:25;4.50;99.90
24146;DHT22;12308;50.948;4.706;2023-01-23T08:20:54;4.70;99.90
24146;DHT22;12308;50.948;4.706;2023-01-23T08:23:26;4.60;99.90
24146;DHT22;12308;50.948;4.706;2023-01-23T08:25:53;4.50;99.90
24146;DHT22;12308;50.948;4.706;2023-01-23T08:28:20;4.30;99.90
24146;DHT22;12308;50.948;4.706;2023-01-23T08:30:45;4.30;99.90
24146;DHT22;12308;50.948;4.706;2023-01-23T08:33:11;4.20;99.90
24146;DHT22;12308;50.948;4.706;2023-01-23T08:35:37;4.30;99.90
24146;DHT22;12308;50.948;4.706;2023-01-23T08:38:03;4.30;99.90
24146;DHT22;12308;50.948;4.706;2023-01-23T08:40:30;4.20;99.90
24146;DHT22;12308;50.948;4.706;2023-01-23T08:42:55;4.30;99.90
24146;DHT22;12308;50.948;4.706;2023-01-23T08:45:21;4.40;99.90
24146;DHT22;12308;50.948;4.706;2023-01-23T08:47:47;4.30;99.90
24146;DHT22;12308;50.948;4.706;2023-01-23T08:50:13;4.20;99.90
24146;DHT22;12308;50.948;4.706;2023-01-23T08:52:39;4.20;99.90
24146;DHT22;12308;50.948;4.706;2023-01-23T08:55:05;4.20;99.90
24146;DHT22;12308;50.948;4.706;2023-01-23T08:57:30;4.30;99.90
24146;DHT22;12308;50.948;4.706;2023-01-23T08:59:56;4.40;99.90
24146;DHT22;12308;50.948;4.706;2023-01-23T09:02:22;4.30;99.90
24146;DHT22;12308;50.948;4.706;2023-01-23T09:04:48;4.30;99.90
24146;DHT22;12308;50.948;4.706;2023-01-23T09:07:14;4.40;99.90
24146;DHT22;12308;50.948;4.706;2023-01-23T09:09:39;4.40;99.90
24146;DHT22;12308;50.948;4.706;2023-01-23T09:12:05;4.40;99.90
24146;DHT22;12308;50.948;4.706;2023-01-23T09:14:31;4.50;99.90
24146;DHT22;12308;50.948;4.706;2023-01-23T09:16:59;4.60;99.90
24146;DHT22;12308;50.948;4.706;2023-01-23T09:19:25;4.40;99.90
24146;DHT22;12308;50.948;4.706;2023-01-23T09:21:53;4.50;99.90
24146;DHT22;12308;50.948;4.706;2023-01-23T09:24:21;4.60;99.90
24146;DHT22;12308;50.948;4.706;2023-01-23T09:26:46;4.60;99.90
24146;DHT22;12308;50.948;4.706;2023-01-23T09:29:13;4.60;99.90
24146;DHT22;12308;50.948;4.706;2023-01-23T09:31:39;4.70;99.90
24146;DHT22;12308;50.948;4.706;2023-01-23T09:34:04;4.80;99.90
24146;DHT22;12308;50.948;4.706;2023-01-23T09:36:32;4.80;99.90
24146;DHT22;12308;50.948;4.706;2023-01-23T09:38:57;4.70;99.90
24146;DHT22;12308;50.948;4.706;2023-01-23T09:41:26;4.70;99.90
24146;DHT22;12308;50.948;4.706;2023-01-23T09:46:38;4.50;99.90
24146;DHT22;12308;50.948;4.706;2023-01-23T09:49:16;4.50;99.90
24146;DHT22;12308;50.948;4.706;2023-01-23T09:51:50;4.60;99.90
24146;DHT22;12308;50.948;4.706;2023-01-23T09:57:17;4.70;99.90
24146;DHT22;12308;50.948;4.706;2023-01-23T10:00:31;4.70;99.90
24146;DHT22;12308;50.948;4.706;2023-01-23T10:02:59;4.80;99.90
24146;DHT22;12308;50.948;4.706;2023-01-23T10:10:57;5.00;99.90
24146;DHT22;12308;50.948;4.706;2023-01-23T10:16:51;5.00;99.90
24146;DHT22;12308;50.948;4.706;2023-01-23T10:22:21;5.00;99.90
24146;DHT22;12308;50.948;4.706;2023-01-23T10:24:54;4.90;99.90
24146;DHT22;12308;50.948;4.706;2023-01-23T10:27:40;5.00;99.90
24146;DHT22;12308;50.948;4.706;2023-01-23T10:30:34;4.80;99.90
24146;DHT22;12308;50.948;4.706;2023-01-23T10:33:17;4.90;99.90
24146;DHT22;12308;50.948;4.706;2023-01-23T10:35:49;4.90;99.90
24146;DHT22;12308;50.948;4.706;2023-01-23T10:38:26;4.90;99.90
24146;DHT22;12308;50.948;4.706;2023-01-23T10:40:55;4.90;99.90
24146;DHT22;12308;50.948;4.706;2023-01-23T10:43:45;4.90;99.90
24146;DHT22;12308;50.948;4.706;2023-01-23T10:48:52;5.00;99.90
24146;DHT22;12308;50.948;4.706;2023-01-23T10:51:45;5.10;99.90
24146;DHT22;12308;50.948;4.706;2023-01-23T10:54:25;5.10;99.90
24146;DHT22;12308;50.948;4.706;2023-01-23T10:57:00;5.00;99.90
24146;DHT22;12308;50.948;4.706;2023-01-23T11:04:28;4.90;99.90
24146;DHT22;12308;50.948;4.706;2023-01-23T11:09:30;5.00;99.90
24146;DHT22;12308;50.948;4.706;2023-01-23T11:12:00;5.20;99.90
24146;DHT22;12308;50.948;4.706;2023-01-23T11:14:26;5.10;99.90
24146;DHT22;12308;50.948;4.706;2023-01-23T11:17:31;5.10;99.90
24146;DHT22;12308;50.948;4.706;2023-01-23T11:19:57;5.20;99.90
24146;DHT22;12308;50.948;4.706;2023-01-23T11:22:32;5.10;99.90
24146;DHT22;12308;50.948;4.706;2023-01-23T11:25:29;5.10;99.90
24146;DHT22;12308;50.948;4.706;2023-01-23T11:28:01;5.00;99.90
24146;DHT22;12308;50.948;4.706;2023-01-23T11:30:40;4.90;99.90
24146;DHT22;12308;50.948;4.706;2023-01-23T11:35:46;4.90;99.90
24146;DHT22;12308;50.948;4.706;2023-01-23T11:38:16;4.90;99.90
24146;DHT22;12308;50.948;4.706;2023-01-23T11:40:43;5.00;99.90
24146;DHT22;12308;50.948;4.706;2023-01-23T11:43:14;4.90;99.90
24146;DHT22;12308;50.948;4.706;2023-01-23T11:48:49;5.20;99.90
24146;DHT22;12308;50.948;4.706;2023-01-23T11:54:22;5.40;99.90
24146;DHT22;12308;50.948;4.706;2023-01-23T12:10:25;5.30;99.90
24146;DHT22;12308;50.948;4.706;2023-01-23T12:25:59;5.40;99.90
24146;DHT22;12308;50.948;4.706;2023-01-23T12:34:22;5.30;99.90
24146;DHT22;12308;50.948;4.706;2023-01-23T12:37:14;5.30;99.90
24146;DHT22;12308;50.948;4.706;2023-01-23T12:42:59;5.40;99.90
24146;DHT22;12308;50.948;4.706;2023-01-23T12:45:31;5.50;99.90
24146;DHT22;12308;50.948;4.706;2023-01-23T12:50:51;5.40;99.90
24146;DHT22;12308;50.948;4.706;2023-01-23T12:53:21;5.40;99.90
24146;DHT22;12308;50.948;4.706;2023-01-23T12:55:58;5.30;99.90
24146;DHT22;12308;50.948;4.706;2023-01-23T12:58:27;5.30;99.90
24146;DHT22;12308;50.948;4.706;2023-01-23T13:01:22;5.20;99.90
24146;DHT22;12308;50.948;4.706;2023-01-23T13:09:27;5.20;99.90
24146;DHT22;12308;50.948;4.706;2023-01-23T13:14:45;5.60;99.90
24146;DHT22;12308;50.948;4.706;2023-01-23T13:17:40;5.50;99.90
24146;DHT22;12308;50.948;4.706;2023-01-23T13:23:32;5.50;99.90
24146;DHT22;12308;50.948;4.706;2023-01-23T13:28:41;5.20;99.90
24146;DHT22;12308;50.948;4.706;2023-01-23T13:36:43;5.10;99.90
24146;DHT22;12308;50.948;4.706;2023-01-23T13:41:41;5.30;99.90
24146;DHT22;12308;50.948;4.706;2023-01-23T13:50:07;5.60;99.90
24146;DHT22;12308;50.948;4.706;2023-01-23T13:52:43;5.50;99.90
24146;DHT22;12308;50.948;4.706;2023-01-23T13:55:33;5.50;99.90
24146;DHT22;12308;50.948;4.706;2023-01-23T13:58:24;5.60;99.90
24146;DHT22;12308;50.948;4.706;2023-01-23T14:01:04;5.50;99.90
24146;DHT22;12308;50.948;4.706;2023-01-23T14:03:53;5.40;99.90
24146;DHT22;12308;50.948;4.706;2023-01-23T14:06:39;5.50;99.90
24146;DHT22;12308;50.948;4.706;2023-01-23T14:09:22;5.30;99.90
24146;DHT22;12308;50.948;4.706;2023-01-23T14:11:59;5.10;99.90
24146;DHT22;12308;50.948;4.706;2023-01-23T14:14:33;5.00;99.90
24146;DHT22;12308;50.948;4.706;2023-01-23T14:17:19;5.00;99.90
24146;DHT22;12308;50.948;4.706;2023-01-23T14:19:57;4.90;99.90
24146;DHT22;12308;50.948;4.706;2023-01-23T14:22:27;5.00;99.90
24146;DHT22;12308;50.948;4.706;2023-01-23T14:25:00;5.00;99.90
24146;DHT22;12308;50.948;4.706;2023-01-23T14:27:36;5.00;99.90
24146;DHT22;12308;50.948;4.706;2023-01-23T14:30:14;5.10;99.90
24146;DHT22;12308;50.948;4.706;2023-01-23T14:32:41;5.10;99.90
24146;DHT22;12308;50.948;4.706;2023-01-23T14:35:30;5.10;99.90
24146;DHT22;12308;50.948;4.706;2023-01-23T14:37:58;5.20;99.90
24146;DHT22;12308;50.948;4.706;2023-01-23T14:40:25;5.10;99.90
24146;DHT22;12308;50.948;4.706;2023-01-23T14:42:59;5.20;99.90
24146;DHT22;12308;50.948;4.706;2023-01-23T14:45:28;5.20;99.90
24146;DHT22;12308;50.948;4.706;2023-01-23T14:47:54;5.30;99.90
24146;DHT22;12308;50.948;4.706;2023-01-23T14:50:24;5.20;99.90
24146;DHT22;12308;50.948;4.706;2023-01-23T14:53:00;5.20;99.90
24146;DHT22;12308;50.948;4.706;2023-01-23T14:55:28;5.20;99.90
24146;DHT22;12308;50.948;4.706;2023-01-23T14:57:57;5.20;99.90
24146;DHT22;12308;50.948;4.706;2023-01-23T15:00:24;5.10;99.90
24146;DHT22;12308;50.948;4.706;2023-01-23T15:02:50;5.00;99.90
24146;DHT22;12308;50.948;4.706;2023-01-23T15:05:21;5.10;99.90
24146;DHT22;12308;50.948;4.706;2023-01-23T15:10:26;5.00;99.90
24146;DHT22;12308;50.948;4.706;2023-01-23T15:12:58;4.90;99.90
24146;DHT22;12308;50.948;4.706;2023-01-23T15:15:25;4.80;99.90
24146;DHT22;12308;50.948;4.706;2023-01-23T15:17:52;4.80;99.90
24146;DHT22;12308;50.948;4.706;2023-01-23T15:20:33;4.90;99.90
24146;DHT22;12308;50.948;4.706;2023-01-23T15:23:23;4.80;99.90
24146;DHT22;12308;50.948;4.706;2023-01-23T15:26:11;4.90;99.90
24146;DHT22;12308;50.948;4.706;2023-01-23T15:28:51;4.90;99.90
24146;DHT22;12308;50.948;4.706;2023-01-23T15:37:05;4.60;99.90
24146;DHT22;12308;50.948;4.706;2023-01-23T15:39:50;4.60;99.90
24146;DHT22;12308;50.948;4.706;2023-01-23T15:44:42;4.70;99.90
24146;DHT22;12308;50.948;4.706;2023-01-23T15:47:09;4.60;99.90
24146;DHT22;12308;50.948;4.706;2023-01-23T15:49:36;4.60;99.90
24146;DHT22;12308;50.948;4.706;2023-01-23T15:52:23;4.70;99.90
24146;DHT22;12308;50.948;4.706;2023-01-23T15:54:55;4.50;99.90
24146;DHT22;12308;50.948;4.706;2023-01-23T15:57:22;4.60;99.90
24146;DHT22;12308;50.948;4.706;2023-01-23T15:59:48;4.60;99.90
24146;DHT22;12308;50.948;4.706;2023-01-23T16:02:19;4.70;99.90
24146;DHT22;12308;50.948;4.706;2023-01-23T16:04:45;4.70;99.90
24146;DHT22;12308;50.948;4.706;2023-01-23T16:07:24;4.80;99.90
24146;DHT22;12308;50.948;4.706;2023-01-23T16:09:50;4.70;99.90
24146;DHT22;12308;50.948;4.706;2023-01-23T16:12:19;4.70;99.90
24146;DHT22;12308;50.948;4.706;2023-01-23T16:14:49;4.60;99.90
24146;DHT22;12308;50.948;4.706;2023-01-23T16:17:15;4.70;99.90
24146;DHT22;12308;50.948;4.706;2023-01-23T16:19:40;4.70;99.90
24146;DHT22;12308;50.948;4.706;2023-01-23T16:22:26;4.70;99.90
24146;DHT22;12308;50.948;4.706;2023-01-23T16:24:53;4.80;99.90
24146;DHT22;12308;50.948;4.706;2023-01-23T16:27:22;4.80;99.90
24146;DHT22;12308;50.948;4.706;2023-01-23T16:29:52;4.90;99.90
24146;DHT22;12308;50.948;4.706;2023-01-23T16:32:18;4.80;99.90
24146;DHT22;12308;50.948;4.706;2023-01-23T16:34:44;4.80;99.90
24146;DHT22;12308;50.948;4.706;2023-01-23T16:37:13;4.70;99.90
24146;DHT22;12308;50.948;4.706;2023-01-23T16:39:40;4.70;99.90
24146;DHT22;12308;50.948;4.706;2023-01-23T16:42:13;4.70;99.90
24146;DHT22;12308;50.948;4.706;2023-01-23T16:44:40;4.90;99.90
24146;DHT22;12308;50.948;4.706;2023-01-23T16:47:05;5.00;99.90
24146;DHT22;12308;50.948;4.706;2023-01-23T16:49:31;5.00;99.90
24146;DHT22;12308;50.948;4.706;2023-01-23T16:51:58;4.70;99.90
24146;DHT22;12308;50.948;4.706;2023-01-23T16:54:24;4.80;99.90
24146;DHT22;12308;50.948;4.706;2023-01-23T16:56:52;4.90;99.90
24146;DHT22;12308;50.948;4.706;2023-01-23T16:59:29;4.70;99.90
24146;DHT22;12308;50.948;4.706;2023-01-23T17:01:55;4.60;99.90
24146;DHT22;12308;50.948;4.706;2023-01-23T17:04:21;4.50;99.90
24146;DHT22;12308;50.948;4.706;2023-01-23T17:06:48;4.50;99.90
24146;DHT22;12308;50.948;4.706;2023-01-23T17:09:16;4.50;99.90
24146;DHT22;12308;50.948;4.706;2023-01-23T17:11:46;4.60;99.90
24146;DHT22;12308;50.948;4.706;2023-01-23T17:16:46;4.70;99.90
24146;DHT22;12308;50.948;4.706;2023-01-23T17:19:20;4.60;99.90
24146;DHT22;12308;50.948;4.706;2023-01-23T17:21:47;4.50;99.90
24146;DHT22;12308;50.948;4.706;2023-01-23T17:24:15;4.60;99.90
24146;DHT22;12308;50.948;4.706;2023-01-23T17:26:41;4.70;99.90
24146;DHT22;12308;50.948;4.706;2023-01-23T17:29:07;4.80;99.90
24146;DHT22;12308;50.948;4.706;2023-01-23T17:31:33;4.70;99.90
24146;DHT22;12308;50.948;4.706;2023-01-23T17:33:59;4.70;99.90
24146;DHT22;12308;50.948;4.706;2023-01-23T17:36:26;4.50;99.90
24146;DHT22;12308;50.948;4.706;2023-01-23T17:38:54;4.50;99.90
24146;DHT22;12308;50.948;4.706;2023-01-23T17:41:20;4.40;99.90
24146;DHT22;12308;50.948;4.706;2023-01-23T17:43:46;4.70;99.90
24146;DHT22;12308;50.948;4.706;2023-01-23T17:46:30;4.70;99.90
24146;DHT22;12308;50.948;4.706;2023-01-23T17:48:56;4.60;99.90
24146;DHT22;12308;50.948;4.706;2023-01-23T17:51:23;4.70;99.90
24146;DHT22;12308;50.948;4.706;2023-01-23T17:53:51;4.80;99.90
24146;DHT22;12308;50.948;4.706;2023-01-23T17:56:19;4.80;99.90
24146;DHT22;12308;50.948;4.706;2023-01-23T17:58:44;4.80;99.90
24146;DHT22;12308;50.948;4.706;2023-01-23T18:01:22;4.70;99.90
24146;DHT22;12308;50.948;4.706;2023-01-23T18:03:50;4.80;99.90